Time;durP1;ratioP1;P1;durP2;ratioP2;P2;SDS_P1;SDS_P2;PMS_P1;PMS_P2;Temp;Humidity;BMP_temperature;BMP_pressure;BME280_temperature;BME280_humidity;BME280_pressure;Samples;Min_cycle;Max_cycle;Signal;HPM_P1;HPM_P2
2021/08/11 00:00:49;;;;;;;;;5.00;4.50;;;;;22.32;59.47;101122.47;4917485;28;45634;-81
2021/08/11 00:03:14;;;;;;;;;8.00;4.25;;;;;22.38;59.48;101126.28;4917103;28;46865;-81
2021/08/11 00:05:41;;;;;;;;;8.00;6.00;;;;;22.39;59.60;101143.97;4916786;28;46876;-81
2021/08/11 00:08:06;;;;;;;;;4.75;4.00;;;;;22.38;59.72;101144.97;4917186;28;45681;-81
2021/08/11 00:10:32;;;;;;;;;5.00;5.00;;;;;22.36;59.33;101144.31;4917275;28;45783;-81
2021/08/11 00:12:57;;;;;;;;;6.00;5.00;;;;;22.36;59.36;101149.66;4917019;28;46277;-81
2021/08/11 00:15:22;;;;;;;;;5.75;4.75;;;;;22.25;59.64;101140.19;4916688;28;46164;-84
2021/08/11 00:17:48;;;;;;;;;5.25;4.25;;;;;22.11;59.42;101107.03;4916843;28;46204;-83
2021/08/11 00:20:13;;;;;;;;;4.25;3.25;;;;;22.33;59.81;101147.34;4917025;28;46061;-81
2021/08/11 00:22:39;;;;;;;;;4.00;3.00;;;;;22.28;59.67;101142.53;4916846;28;46473;-81
2021/08/11 00:28:26;;;;;;;;;3.00;3.00;;;;;22.15;60.18;101140.38;4917743;28;45674;-81
2021/08/11 00:30:52;;;;;;;;;4.00;3.50;;;;;22.11;59.71;101141.72;4917815;28;45664;-82
2021/08/11 00:33:18;;;;;;;;;3.00;3.00;;;;;22.09;59.94;101145.56;4917926;28;46785;-81
2021/08/11 00:35:44;;;;;;;;;4.00;4.00;;;;;22.15;60.36;101156.41;4900710;28;46259;-81
2021/08/11 00:38:09;;;;;;;;;3.50;3.25;;;;;22.01;60.57;101137.59;4917382;28;45805;-82
2021/08/11 00:43:56;;;;;;;;;3.00;3.00;;;;;21.91;60.55;101136.91;4916607;28;46212;-81
2021/08/11 00:46:22;;;;;;;;;3.00;3.00;;;;;22.06;60.29;101172.59;4899478;28;47254;-82
2021/08/11 00:48:48;;;;;;;;;4.00;3.00;;;;;21.98;60.74;101168.09;4917102;28;45634;-80
2021/08/11 00:51:14;;;;;;;;;1.50;1.50;;;;;21.97;60.42;101168.28;4917050;28;45915;-80
2021/08/11 00:53:41;;;;;;;;;3.50;2.50;;;;;21.99;60.75;101171.59;4915951;28;45639;-83
2021/08/11 00:56:07;;;;;;;;;4.00;2.25;;;;;21.88;60.57;101161.25;4916325;28;46250;-81
2021/08/11 00:58:35;;;;;;;;;2.75;2.75;;;;;21.99;60.31;101180.44;4916234;28;45842;-81
2021/08/11 01:01:02;;;;;;;;;3.00;3.00;;;;;21.97;60.77;101178.97;4916160;28;45642;-81
2021/08/11 01:03:29;;;;;;;;;2.25;2.25;;;;;21.99;60.95;101187.63;4915784;28;45785;-81
2021/08/11 01:05:59;;;;;;;;;2.00;2.00;;;;;21.95;60.90;101187.13;4898804;28;47226;-81
2021/08/11 01:08:26;;;;;;;;;3.00;3.00;;;;;21.88;60.52;101179.91;4916390;28;45740;-82
2021/08/11 01:10:52;;;;;;;;;2.50;2.25;;;;;21.86;61.01;101168.59;4916292;28;46313;-85
2021/08/11 01:13:19;;;;;;;;;2.00;2.00;;;;;21.91;61.09;101179.59;4915774;28;46231;-83
2021/08/11 01:15:47;;;;;;;;;2.00;2.00;;;;;21.73;60.73;101153.94;4916129;28;46652;-81
2021/08/11 01:18:17;;;;;;;;;2.00;2.00;;;;;21.74;60.73;101152.09;4916316;28;45640;-81
2021/08/11 01:20:50;;;;;;;;;2.00;2.00;;;;;21.60;60.48;101124.25;4916547;28;45822;-82
2021/08/11 01:23:19;;;;;;;;;2.00;1.75;;;;;21.77;60.45;101152.59;4915712;28;47072;-79
2021/08/11 01:29:14;;;;;;;;;1.00;1.00;;;;;21.80;60.33;101153.25;4914650;28;45780;-82
2021/08/11 01:31:56;;;;;;;;;1.25;1.25;;;;;21.67;60.11;101135.09;4916056;28;45816;-82
2021/08/11 01:34:40;;;;;;;;;2.00;1.50;;;;;21.75;60.40;101151.91;4915267;28;45728;-81
2021/08/11 01:37:09;;;;;;;;;2.00;1.00;;;;;21.62;60.34;101143.59;4915653;28;45929;-81
2021/08/11 01:39:49;;;;;;;;;1.25;1.25;;;;;21.67;60.14;101148.44;4915674;28;45749;-84
2021/08/11 01:42:28;;;;;;;;;1.50;1.25;;;;;21.61;60.30;101141.09;4915499;28;46212;-82
2021/08/11 01:45:11;;;;;;;;;2.00;1.00;;;;;21.54;59.77;101138.25;4915463;28;45650;-80
2021/08/11 01:47:58;;;;;;;;;2.00;2.00;;;;;21.63;60.08;101161.28;4898310;28;47099;-81
2021/08/11 01:50:26;;;;;;;;;2.00;1.25;;;;;21.61;59.72;101162.44;4915510;28;45647;-82
2021/08/11 01:52:54;;;;;;;;;1.75;1.75;;;;;21.61;59.92;101146.44;4915357;28;45652;-83
2021/08/11 01:55:20;;;;;;;;;2.00;1.50;;;;;21.52;59.65;101129.59;4914994;28;45737;-80
2021/08/11 01:57:49;;;;;;;;;1.50;1.50;;;;;21.50;59.62;101128.94;4915504;28;45593;-80
2021/08/11 02:00:16;;;;;;;;;2.00;2.00;;;;;21.24;59.92;101083.78;4915692;28;45744;-80
2021/08/11 02:02:41;;;;;;;;;1.00;1.00;;;;;21.53;59.69;101136.63;4915483;28;45713;-81
2021/08/11 02:05:11;;;;;;;;;1.50;1.50;;;;;21.50;59.46;101122.75;4918440;28;45590;-82
2021/08/11 02:07:39;;;;;;;;;3.50;3.00;;;;;21.49;59.64;101134.41;4921738;28;45617;-81
2021/08/11 02:10:07;;;;;;;;;1.50;1.25;;;;;21.47;59.07;101129.28;4923032;28;45722;-81
2021/08/11 02:12:32;;;;;;;;;1.00;1.00;;;;;21.24;59.19;101091.78;4920918;28;45704;-81
2021/08/11 02:14:59;;;;;;;;;2.00;1.75;;;;;21.31;58.84;101114.13;4919171;28;45534;-84
2021/08/11 02:17:24;;;;;;;;;1.75;1.75;;;;;21.41;58.96;101143.28;4919353;28;46145;-80
2021/08/11 02:19:50;;;;;;;;;2.00;2.00;;;;;21.29;58.99;101120.59;4919143;28;45551;-82
2021/08/11 02:22:16;;;;;;;;;2.00;1.50;;;;;21.36;58.95;101132.28;4919202;28;45583;-81
2021/08/11 02:24:42;;;;;;;;;2.00;2.00;;;;;21.34;58.97;101134.25;4918959;28;46730;-81
2021/08/11 02:27:16;;;;;;;;;2.00;1.50;;;;;21.18;59.05;101107.59;4918641;28;45702;-83
2021/08/11 02:29:50;;;;;;;;;2.00;2.00;;;;;21.23;58.74;101119.44;4918618;28;45796;-80
2021/08/11 02:32:18;;;;;;;;;2.00;2.00;;;;;21.28;58.61;101135.75;4901504;28;45576;-81
2021/08/11 02:34:58;;;;;;;;;2.50;1.75;;;;;21.27;59.02;101135.91;4918104;28;46562;-81
2021/08/11 02:37:31;;;;;;;;;1.00;1.00;;;;;21.22;58.90;101124.91;4918584;28;47035;-83
2021/08/11 02:40:05;;;;;;;;;2.50;2.00;;;;;21.14;58.92;101114.22;4918390;28;45594;-79
2021/08/11 02:43:01;;;;;;;;;0.00;0.00;;;;;21.23;58.77;101130.09;4918669;28;45968;-81
2021/08/11 02:45:31;;;;;;;;;3.75;2.00;;;;;21.15;58.73;101116.78;4918582;28;45680;-80
2021/08/11 02:47:58;;;;;;;;;1.00;1.00;;;;;21.24;58.47;101128.25;4918532;28;45686;-79
2021/08/11 02:50:23;;;;;;;;;3.00;2.00;;;;;21.22;58.66;101122.25;4901709;28;45880;-82
2021/08/11 02:52:49;;;;;;;;;2.00;2.00;;;;;21.09;58.61;101096.06;4923252;28;45672;-78
2021/08/11 02:55:15;;;;;;;;;1.75;1.75;;;;;21.21;58.54;101121.44;4927047;28;46714;-79
2021/08/11 02:57:41;;;;;;;;;2.00;2.00;;;;;21.08;58.52;101098.91;4926286;28;45724;-79
2021/08/11 03:00:07;;;;;;;;;3.00;2.00;;;;;21.26;58.71;101129.78;4926542;28;45689;-79
2021/08/11 03:02:33;;;;;;;;;2.50;2.00;;;;;21.27;58.47;101127.91;4920292;28;45730;-81
2021/08/11 03:05:00;;;;;;;;;3.00;2.00;;;;;21.27;58.61;101136.75;4919267;28;46395;-80
2021/08/11 03:07:27;;;;;;;;;1.75;1.75;;;;;21.28;58.69;101133.09;4919109;28;46097;-83
2021/08/11 03:09:53;;;;;;;;;2.00;2.00;;;;;21.29;58.84;101128.59;4918768;28;45594;-79
2021/08/11 03:12:19;;;;;;;;;4.25;2.00;;;;;21.25;58.59;101120.09;4918181;28;45571;-81
2021/08/11 03:14:48;;;;;;;;;3.00;3.00;;;;;21.26;58.57;101116.44;4917455;28;47579;-81
2021/08/11 03:17:14;;;;;;;;;4.75;2.75;;;;;21.17;58.52;101100.59;4918122;28;45993;-79
2021/08/11 03:19:39;;;;;;;;;3.00;2.00;;;;;21.20;58.50;101108.28;4918151;28;45942;-81
2021/08/11 03:22:09;;;;;;;;;4.00;4.00;;;;;21.16;58.53;101104.28;4918057;28;45708;-81
2021/08/11 03:24:34;;;;;;;;;4.00;3.00;;;;;21.27;58.70;101131.41;4917396;28;46447;-81
2021/08/11 03:27:00;;;;;;;;;4.00;2.00;;;;;21.08;58.50;101096.22;4917828;28;45728;-81
2021/08/11 03:29:25;;;;;;;;;2.00;2.00;;;;;21.30;58.23;101133.78;4917785;28;46031;-81
2021/08/11 03:31:51;;;;;;;;;2.00;2.00;;;;;21.28;58.58;101134.91;4917629;28;45645;-81
2021/08/11 03:34:16;;;;;;;;;3.00;2.00;;;;;21.23;58.47;101123.91;4917359;28;45677;-82
2021/08/11 03:36:41;;;;;;;;;1.75;1.75;;;;;21.30;58.31;101138.25;4917730;28;46012;-81
2021/08/11 03:39:07;;;;;;;;;3.00;2.25;;;;;21.23;58.43;101132.75;4917770;28;45623;-84
2021/08/11 03:44:54;;;;;;;;;2.00;1.75;;;;;21.12;58.15;101127.72;4918290;28;46126;-83
2021/08/11 03:47:20;;;;;;;;;2.00;1.75;;;;;21.24;58.49;101152.25;4922556;28;45582;-83
2021/08/11 03:49:46;;;;;;;;;2.50;2.00;;;;;21.10;58.51;101137.72;4922325;28;45676;-81
2021/08/11 03:52:12;;;;;;;;;2.00;2.00;;;;;21.08;58.78;101134.38;4921667;28;45675;-81
2021/08/11 03:54:38;;;;;;;;;2.00;2.00;;;;;21.13;58.46;101142.72;4920784;28;45921;-81
2021/08/11 03:57:03;;;;;;;;;2.00;2.00;;;;;21.18;58.25;101156.41;4918147;28;46159;-84
2021/08/11 03:59:29;;;;;;;;;3.00;3.00;;;;;21.18;58.56;101151.06;4918448;28;45722;-84
2021/08/11 04:01:55;;;;;;;;;3.00;3.00;;;;;20.99;58.67;101129.19;4917876;28;45696;-83
2021/08/11 04:04:20;;;;;;;;;2.00;2.00;;;;;21.12;58.36;101154.34;4916923;28;45678;-81
2021/08/11 04:06:46;;;;;;;;;2.00;2.00;;;;;21.16;58.56;101162.91;4917271;28;46140;-80
2021/08/11 04:09:11;;;;;;;;;3.00;2.00;;;;;21.15;58.75;101163.91;4917394;28;45801;-84
2021/08/11 04:14:58;;;;;;;;;2.50;2.50;;;;;21.12;58.98;101153.53;4916777;28;45748;-82
2021/08/11 04:17:23;;;;;;;;;3.75;3.00;;;;;20.99;58.64;101142.53;4917033;28;45696;-83
2021/08/11 04:19:49;;;;;;;;;2.00;2.00;;;;;20.83;58.71;101117.50;4917169;28;45594;-81
2021/08/11 04:22:14;;;;;;;;;3.00;3.00;;;;;21.08;58.93;101154.84;4917034;28;45653;-80
2021/08/11 04:24:40;;;;;;;;;3.25;3.25;;;;;20.87;59.08;101126.00;4916561;28;45565;-81
2021/08/11 04:27:05;;;;;;;;;3.00;3.00;;;;;20.97;59.24;101142.69;4916947;28;45635;-81
2021/08/11 04:29:30;;;;;;;;;4.00;3.25;;;;;21.00;59.55;101152.19;4916010;28;45658;-82
2021/08/11 04:31:56;;;;;;;;;4.50;4.00;;;;;21.00;59.35;101160.97;4916672;28;45720;-80
2021/08/11 04:34:21;;;;;;;;;3.00;2.75;;;;;21.02;59.56;101171.50;4916357;28;45715;-80
2021/08/11 04:36:46;;;;;;;;;3.00;2.25;;;;;20.96;59.64;101164.97;4916811;28;45586;-80
2021/08/11 04:39:12;;;;;;;;;5.25;4.00;;;;;21.00;59.81;101178.84;4916736;28;45633;-79
2021/08/11 04:45:00;;;;;;;;;3.00;2.00;;;;;20.90;60.06;101153.16;4916230;28;45605;-80
2021/08/11 04:47:25;;;;;;;;;4.00;2.00;;;;;20.88;60.26;101157.81;4916593;28;45855;-83
2021/08/11 04:49:51;;;;;;;;;3.75;3.00;;;;;20.86;60.42;101164.28;4916693;28;45514;-82
2021/08/11 04:52:16;;;;;;;;;4.00;4.00;;;;;20.86;60.45;101174.94;4916613;28;45638;-82
2021/08/11 04:54:42;;;;;;;;;3.00;3.00;;;;;20.85;60.67;101171.44;4916303;28;45539;-80
2021/08/11 04:57:07;;;;;;;;;3.00;3.00;;;;;20.68;60.49;101153.72;4916489;28;45615;-81
2021/08/11 04:59:33;;;;;;;;;3.00;3.00;;;;;20.74;60.93;101170.91;4916306;28;45685;-82
2021/08/11 05:01:58;;;;;;;;;4.00;3.50;;;;;20.75;61.00;101170.75;4916554;28;45682;-82
2021/08/11 05:04:23;;;;;;;;;4.00;3.00;;;;;20.53;60.72;101134.03;4915976;28;45667;-83
2021/08/11 05:06:49;;;;;;;;;4.25;3.00;;;;;20.72;60.88;101171.09;4899417;28;45818;-84
2021/08/11 05:09:14;;;;;;;;;4.00;4.00;;;;;20.74;61.14;101181.56;4915018;28;45767;-82
2021/08/11 05:15:03;;;;;;;;;4.00;4.00;;;;;20.58;61.39;101177.00;4915421;28;45607;-84
2021/08/11 05:17:29;;;;;;;;;3.25;3.25;;;;;20.67;61.26;101194.69;4916051;28;46606;-81
2021/08/11 05:19:54;;;;;;;;;4.50;4.25;;;;;20.64;61.57;101183.50;4916004;28;45572;-82
2021/08/11 05:22:21;;;;;;;;;4.00;3.75;;;;;20.53;61.57;101163.34;4915872;28;45806;-81
2021/08/11 05:24:47;;;;;;;;;4.75;4.00;;;;;20.67;61.25;101193.88;4915849;28;46947;-83
2021/08/11 05:27:13;;;;;;;;;3.75;3.75;;;;;20.58;61.43;101184.16;4916049;28;46483;-80
2021/08/11 05:29:42;;;;;;;;;4.75;4.00;;;;;20.63;61.87;101195.16;4914368;28;45676;-81
2021/08/11 05:32:07;;;;;;;;;5.00;4.00;;;;;20.67;61.67;101201.84;4914474;28;45535;-82
2021/08/11 05:34:33;;;;;;;;;4.50;4.00;;;;;20.67;61.81;101205.34;4915969;28;45558;-81
2021/08/11 05:36:58;;;;;;;;;3.50;3.50;;;;;20.65;61.94;101198.50;4919884;28;46124;-82
2021/08/11 05:39:23;;;;;;;;;4.75;4.75;;;;;20.67;61.74;101199.19;4919871;28;45760;-82
2021/08/11 05:45:11;;;;;;;;;5.50;4.25;;;;;20.69;62.01;101202.50;4921154;28;45678;-84
2021/08/11 05:47:36;;;;;;;;;5.00;5.00;;;;;20.68;62.10;101203.50;4917582;28;45669;-81
2021/08/11 05:50:03;;;;;;;;;5.00;4.50;;;;;20.71;62.13;101212.03;4916003;28;45608;-81
2021/08/11 05:52:29;;;;;;;;;5.00;4.50;;;;;20.72;62.21;101213.69;4916134;28;45574;-82
2021/08/11 05:54:54;;;;;;;;;3.50;3.00;;;;;20.36;61.90;101167.75;4915517;28;45811;-83
2021/08/11 05:57:20;;;;;;;;;4.25;4.25;;;;;20.49;61.92;101186.78;4915484;28;46020;-83
2021/08/11 05:59:45;;;;;;;;;4.25;4.25;;;;;20.74;62.42;101225.00;4915752;28;45685;-83
2021/08/11 06:02:10;;;;;;;;;6.00;4.50;;;;;20.66;62.05;101211.66;4897916;28;45708;-82
2021/08/11 06:04:36;;;;;;;;;5.00;4.25;;;;;20.74;62.22;101230.34;4915365;28;45954;-83
2021/08/11 06:07:02;;;;;;;;;4.75;4.00;;;;;20.72;62.53;101224.34;4915489;28;45860;-82
2021/08/11 06:09:28;;;;;;;;;5.00;5.00;;;;;20.68;62.39;101217.66;4915640;28;45666;-84
2021/08/11 06:15:15;;;;;;;;;7.00;6.00;;;;;20.68;62.43;101222.97;4915733;28;45829;-85
2021/08/11 06:17:48;;;;;;;;;6.25;5.00;;;;;20.76;62.49;101235.50;4915433;28;46189;-84
2021/08/11 06:20:17;;;;;;;;;6.25;6.00;;;;;20.77;62.57;101234.53;4915901;28;45523;-84
2021/08/11 06:22:43;;;;;;;;;5.00;5.00;;;;;20.70;62.73;101229.00;4915101;28;45876;-84
2021/08/11 06:25:09;;;;;;;;;5.25;5.00;;;;;20.50;62.79;101187.63;4914935;28;46796;-85
2021/08/11 06:27:35;;;;;;;;;5.00;4.75;;;;;20.49;62.77;101192.13;4898133;28;48536;-85
2021/08/11 06:30:00;;;;;;;;;6.50;6.00;;;;;20.70;62.56;101223.66;4897360;28;45905;-84
2021/08/11 06:32:26;;;;;;;;;5.00;5.00;;;;;20.70;62.79;101218.34;4914536;28;45563;-83
2021/08/11 06:34:51;;;;;;;;;7.25;5.25;;;;;20.62;63.16;101212.16;4896869;28;48245;-84
2021/08/11 06:37:16;;;;;;;;;5.00;4.75;;;;;20.73;62.88;101228.66;4912854;28;48325;-83
2021/08/11 06:39:42;;;;;;;;;7.50;6.00;;;;;20.84;62.90;101244.34;4914982;28;45622;-83
2021/08/11 06:45:29;;;;;;;;;5.25;4.25;;;;;20.89;63.08;101247.38;4914102;28;46215;-81
2021/08/11 06:47:55;;;;;;;;;5.50;5.50;;;;;20.90;62.85;101245.53;4914291;28;45851;-83
2021/08/11 06:50:20;;;;;;;;;5.00;4.75;;;;;20.71;62.77;101201.38;4914837;28;45562;-82
2021/08/11 06:52:46;;;;;;;;;7.00;6.50;;;;;20.99;62.85;101236.63;4915801;28;45671;-82
2021/08/11 06:55:17;;;;;;;;;6.50;5.75;;;;;21.01;62.48;101241.75;4918829;28;45583;-82
2021/08/11 06:57:47;;;;;;;;;6.25;5.75;;;;;21.04;62.98;101230.78;4917386;28;47253;-78
2021/08/11 07:00:13;;;;;;;;;7.00;6.75;;;;;21.06;62.70;101232.28;4901492;28;45943;-83
2021/08/11 07:02:39;;;;;;;;;6.00;6.00;;;;;21.08;62.61;101232.97;4918501;28;45570;-87
2021/08/11 07:05:05;;;;;;;;;6.25;5.75;;;;;21.12;62.79;101236.13;4918458;28;45613;-83
2021/08/11 07:07:31;;;;;;;;;7.00;6.00;;;;;21.15;62.78;101238.53;4919009;28;47452;-82
2021/08/11 07:10:00;;;;;;;;;7.00;6.50;;;;;21.18;62.55;101232.84;4902838;28;46226;-79
2021/08/11 07:15:47;;;;;;;;;4.00;3.50;;;;;21.23;62.24;101233.19;4917563;28;46144;-80
2021/08/11 07:18:16;;;;;;;;;6.25;6.00;;;;;21.18;62.05;101223.03;4917446;28;45705;-79
2021/08/11 07:20:42;;;;;;;;;6.75;5.00;;;;;21.26;62.00;101246.22;4917519;28;45597;-80
2021/08/11 07:23:07;;;;;;;;;7.00;6.50;;;;;21.21;62.04;101237.88;4917079;28;45781;-81
2021/08/11 07:25:33;;;;;;;;;7.00;6.25;;;;;21.25;61.81;101244.56;4917469;28;46783;-80
2021/08/11 07:27:59;;;;;;;;;6.00;5.75;;;;;21.32;61.77;101254.38;4917855;28;46091;-79
2021/08/11 07:30:24;;;;;;;;;5.50;5.00;;;;;21.24;61.68;101238.38;4923716;28;45647;-80
2021/08/11 07:32:50;;;;;;;;;6.00;5.25;;;;;21.37;61.80;101258.41;4924352;28;45794;-82
2021/08/11 07:35:15;;;;;;;;;6.00;5.25;;;;;21.42;61.59;101258.75;4925044;28;45859;-80
2021/08/11 07:37:49;;;;;;;;;5.00;5.00;;;;;21.32;61.58;101241.06;4924705;28;45731;-79
2021/08/11 07:40:15;;;;;;;;;4.50;4.50;;;;;21.41;61.52;101252.59;4920520;28;45900;-82
2021/08/11 07:46:03;;;;;;;;;5.50;5.50;;;;;21.55;61.09;101267.94;4917009;28;46187;-80
2021/08/11 07:48:29;;;;;;;;;5.00;5.00;;;;;21.57;61.13;101265.94;4917314;28;46116;-82
2021/08/11 07:50:54;;;;;;;;;4.25;4.00;;;;;21.58;60.92;101264.13;4917277;28;45595;-80
2021/08/11 07:53:20;;;;;;;;;6.50;5.00;;;;;21.66;60.95;101267.63;4916668;28;45636;-80
2021/08/11 07:55:45;;;;;;;;;7.00;6.00;;;;;21.68;60.71;101262.97;4917149;28;46390;-82
2021/08/11 07:58:10;;;;;;;;;4.25;3.50;;;;;21.73;60.75;101257.97;4916773;28;45761;-81
2021/08/11 08:00:36;;;;;;;;;4.00;4.00;;;;;21.72;60.67;101256.28;4916780;28;45808;-80
2021/08/11 08:03:01;;;;;;;;;5.00;5.00;;;;;21.80;60.20;101254.66;4916750;28;45789;-81
2021/08/11 08:05:27;;;;;;;;;5.00;4.00;;;;;21.81;60.56;101242.97;4915840;28;45740;-80
2021/08/11 08:07:52;;;;;;;;;4.50;4.50;;;;;21.89;59.99;101245.63;4916524;28;45695;-79
2021/08/11 08:10:18;;;;;;;;;5.00;4.00;;;;;21.89;60.05;101242.97;4916765;28;45846;-81
2021/08/11 08:16:04;;;;;;;;;5.00;5.00;;;;;22.00;60.35;101235.50;4916189;28;45714;-81
2021/08/11 08:18:30;;;;;;;;;4.00;4.00;;;;;21.97;59.93;101225.13;4916791;28;46134;-82
2021/08/11 08:20:56;;;;;;;;;5.00;5.00;;;;;22.04;59.82;101233.31;4916459;28;45653;-81
2021/08/11 08:23:22;;;;;;;;;4.00;3.75;;;;;22.07;60.16;101227.66;4898939;28;45776;-80
2021/08/11 08:25:48;;;;;;;;;5.25;4.75;;;;;22.11;59.98;101234.31;4916360;28;46475;-79
2021/08/11 08:32:15;;;;;;;;;4.75;4.00;;;;;22.13;59.33;101232.31;4915590;28;45943;-81
2021/08/11 08:34:41;;;;;;;;;5.00;4.25;;;;;22.17;59.57;101238.97;4916294;28;45678;-80
2021/08/11 08:37:06;;;;;;;;;5.75;5.00;;;;;22.21;59.87;101242.97;4916167;28;45579;-82
2021/08/11 08:39:31;;;;;;;;;6.75;6.00;;;;;22.26;59.08;101250.47;4914511;28;47352;-80
2021/08/11 08:41:57;;;;;;;;;5.75;5.00;;;;;22.24;59.16;101233.81;4915718;28;45746;-81
2021/08/11 08:44:22;;;;;;;;;6.00;4.75;;;;;22.29;59.58;101234.97;4916103;28;45895;-79
2021/08/11 08:46:50;;;;;;;;;5.75;4.75;;;;;22.32;58.94;101237.28;4916147;28;47522;-80
2021/08/11 08:49:16;;;;;;;;;5.00;4.25;;;;;22.37;59.39;101242.09;4916290;28;45917;-81
2021/08/11 08:51:46;;;;;;;;;6.00;5.00;;;;;22.39;59.42;101232.94;4915520;28;45708;-81
2021/08/11 08:54:15;;;;;;;;;4.00;4.00;;;;;22.41;58.92;101241.59;4915398;28;45683;-80
2021/08/11 08:56:40;;;;;;;;;4.00;4.00;;;;;22.27;59.35;101215.59;4916127;28;46472;-79
2021/08/11 08:59:06;;;;;;;;;3.00;3.00;;;;;22.46;58.57;101246.41;4915772;28;46292;-81
2021/08/11 09:01:34;;;;;;;;;3.25;3.00;;;;;22.34;59.16;101221.94;4914321;28;45527;-81
2021/08/11 09:03:59;;;;;;;;;5.50;5.00;;;;;22.50;58.56;101247.78;4916025;28;45638;-81
2021/08/11 09:06:31;;;;;;;;;5.25;4.00;;;;;22.50;58.65;101242.44;4915920;28;45626;-82
2021/08/11 09:09:02;;;;;;;;;4.00;3.00;;;;;22.53;58.76;101247.41;4916242;28;45591;-79
2021/08/11 09:11:28;;;;;;;;;6.00;6.00;;;;;22.55;58.33;101248.94;4917789;28;45688;-79
2021/08/11 09:14:23;;;;;;;;;5.00;4.25;;;;;22.58;58.60;101242.41;4917199;28;45845;-80
2021/08/11 09:16:54;;;;;;;;;6.00;5.00;;;;;22.60;58.72;101237.72;4921116;28;45718;-79
2021/08/11 09:19:22;;;;;;;;;6.00;6.00;;;;;22.63;57.99;101236.53;4922682;28;47241;-80
2021/08/11 09:21:58;;;;;;;;;5.00;4.00;;;;;22.65;58.43;101237.19;4922891;28;45654;-80
2021/08/11 09:24:24;;;;;;;;;6.25;5.25;;;;;22.68;57.83;101226.16;4923064;28;45630;-82
2021/08/11 09:26:50;;;;;;;;;5.75;5.00;;;;;22.69;58.25;101228.66;4920410;28;45916;-80
2021/08/11 09:29:18;;;;;;;;;5.25;5.00;;;;;22.71;58.46;101224.03;4917434;28;45607;-81
2021/08/11 09:31:44;;;;;;;;;3.75;3.75;;;;;22.79;58.38;101228.50;4916084;28;45701;-81
2021/08/11 09:34:10;;;;;;;;;7.25;5.75;;;;;22.81;57.72;101232.66;4915760;28;45524;-79
2021/08/11 09:36:40;;;;;;;;;6.25;6.00;;;;;22.80;58.15;101225.66;4915661;28;45696;-79
2021/08/11 09:39:05;;;;;;;;;5.50;5.25;;;;;22.89;57.68;101240.63;4915310;28;45901;-80
2021/08/11 09:41:32;;;;;;;;;6.00;5.75;;;;;22.91;57.94;101235.97;4915444;28;45973;-79
2021/08/11 09:44:11;;;;;;;;;6.00;5.00;;;;;22.95;57.95;101241.78;4897934;28;45640;-80
2021/08/11 09:46:39;;;;;;;;;7.00;6.00;;;;;22.97;57.68;101234.44;4915320;28;46630;-80
2021/08/11 09:49:24;;;;;;;;;6.00;6.00;;;;;22.94;57.61;101230.25;4915296;28;46093;-80
2021/08/11 09:52:00;;;;;;;;;7.00;6.75;;;;;22.96;57.58;101224.75;4915060;28;45658;-81
2021/08/11 09:54:28;;;;;;;;;6.25;6.25;;;;;23.01;57.24;101227.72;4915061;28;45556;-77
2021/08/11 09:56:54;;;;;;;;;7.00;6.25;;;;;23.09;57.61;101230.38;4915304;28;46776;-79
2021/08/11 09:59:19;;;;;;;;;5.00;4.25;;;;;23.07;57.50;101229.72;4915301;28;45958;-80
2021/08/11 10:01:44;;;;;;;;;6.25;6.00;;;;;23.14;57.32;101238.69;4914791;28;46187;-80
2021/08/11 10:04:11;;;;;;;;;7.25;6.00;;;;;23.20;57.11;101237.16;4915177;28;45928;-79
2021/08/11 10:06:42;;;;;;;;;9.50;9.25;;;;;23.17;57.26;101219.63;4914985;28;45653;-79
2021/08/11 10:09:10;;;;;;;;;7.00;7.00;;;;;23.29;57.12;101231.59;4915221;28;45869;-78
2021/08/11 10:11:41;;;;;;;;;5.75;5.00;;;;;23.23;57.17;101210.06;4915086;28;45656;-78
2021/08/11 10:14:12;;;;;;;;;6.00;5.25;;;;;23.40;56.60;101225.00;4914863;28;46064;-79
2021/08/11 10:16:37;;;;;;;;;6.25;6.25;;;;;23.50;56.38;101227.47;4914718;28;47411;-78
2021/08/11 10:19:06;;;;;;;;;8.25;8.00;;;;;23.58;56.87;101228.25;4915071;28;45665;-81
2021/08/11 10:21:39;;;;;;;;;7.00;7.00;;;;;23.65;56.17;101223.00;4914346;28;45606;-78
2021/08/11 10:24:05;;;;;;;;;4.00;4.00;;;;;23.71;56.37;101219.63;4914886;28;45578;-79
2021/08/11 10:26:31;;;;;;;;;5.00;5.00;;;;;23.78;56.56;101223.25;4914390;28;45594;-81
2021/08/11 10:28:57;;;;;;;;;7.00;7.00;;;;;23.84;56.19;101225.22;4917824;28;45548;-81
2021/08/11 10:31:26;;;;;;;;;8.00;7.00;;;;;23.90;55.86;101224.50;4917903;28;45845;-80
2021/08/11 10:33:52;;;;;;;;;6.75;6.50;;;;;23.86;55.57;101209.78;4917860;28;45792;-81
2021/08/11 10:36:19;;;;;;;;;6.00;6.00;;;;;23.99;55.50;101225.25;4918023;28;45628;-81
2021/08/11 10:38:46;;;;;;;;;5.00;5.00;;;;;24.05;55.03;101224.53;4918293;28;46251;-82
2021/08/11 10:41:13;;;;;;;;;6.00;5.00;;;;;24.11;55.26;101226.47;4917865;28;45601;-82
2021/08/11 10:47:02;;;;;;;;;7.50;5.50;;;;;24.17;54.69;101223.06;4917818;28;46060;-82
2021/08/11 10:49:29;;;;;;;;;7.25;6.00;;;;;24.22;54.30;101231.41;4917797;28;45734;-80
2021/08/11 10:52:14;;;;;;;;;7.00;6.00;;;;;24.17;54.10;101212.38;4917949;28;45686;-78
2021/08/11 10:54:52;;;;;;;;;6.25;6.25;;;;;24.20;53.82;101220.88;4918487;28;45625;-82
2021/08/11 10:57:40;;;;;;;;;7.75;6.75;;;;;24.26;54.08;101232.72;4917820;28;45670;-81
2021/08/11 11:00:10;;;;;;;;;7.00;7.00;;;;;24.25;53.75;101221.16;4904320;28;47262;-82
2021/08/11 11:02:39;;;;;;;;;7.75;7.00;;;;;24.29;53.73;101226.19;4925513;28;45686;-81
2021/08/11 11:05:28;;;;;;;;;6.75;6.00;;;;;24.24;53.85;101207.94;4926039;28;45676;-79
2021/08/11 11:08:13;;;;;;;;;7.25;6.25;;;;;24.35;53.85;101220.06;4925827;28;45835;-82
2021/08/11 11:10:47;;;;;;;;;7.00;5.00;;;;;24.37;53.92;101210.84;4920511;28;46286;-80
2021/08/11 11:13:32;;;;;;;;;7.50;6.25;;;;;24.40;53.19;101204.28;4919287;28;45695;-81
2021/08/11 11:16:01;;;;;;;;;5.00;5.00;;;;;24.42;53.33;101203.06;4919884;28;45556;-79
2021/08/11 11:18:26;;;;;;;;;6.25;5.75;;;;;24.40;53.52;101190.91;4917961;28;45670;-80
2021/08/11 11:20:58;;;;;;;;;6.25;6.25;;;;;24.48;53.82;101202.34;4917418;28;45912;-81
2021/08/11 11:23:33;;;;;;;;;7.25;7.25;;;;;24.51;53.07;101203.81;4917106;28;45818;-81
2021/08/11 11:26:05;;;;;;;;;6.75;6.75;;;;;24.42;52.74;101176.28;4917561;28;45690;-80
2021/08/11 11:28:58;;;;;;;;;6.50;5.25;;;;;24.56;52.83;101196.88;4917293;28;45605;-80
2021/08/11 11:31:34;;;;;;;;;5.75;5.00;;;;;24.58;52.71;101192.16;4917041;28;46675;-80
2021/08/11 11:34:18;;;;;;;;;6.75;6.00;;;;;24.60;52.66;101192.81;4917211;28;45642;-81
2021/08/11 11:36:44;;;;;;;;;6.00;5.50;;;;;24.64;52.58;101193.28;4917499;28;45732;-80
2021/08/11 11:39:12;;;;;;;;;7.50;4.25;;;;;24.66;52.34;101188.56;4916255;28;45819;-80
2021/08/11 11:44:43;;;;;;;;;6.00;6.00;;;;;24.75;52.07;101187.44;4876317;29;45913;-80
2021/08/11 11:47:09;;;;;;;;;5.50;5.00;;;;;24.74;51.63;101179.56;4876971;29;45808;-80
2021/08/11 11:49:36;;;;;;;;;5.50;5.50;;;;;24.83;51.85;101195.38;4876616;29;46499;-80
2021/08/11 11:52:03;;;;;;;;;5.00;4.25;;;;;24.76;51.43;101175.69;4876089;29;45611;-80
2021/08/11 11:54:31;;;;;;;;;5.50;4.75;;;;;24.65;51.90;101147.53;4876550;29;45853;-81
2021/08/11 12:00:19;;;;;;;;;7.00;5.75;;;;;24.95;51.50;101185.84;4876016;29;45978;-80
2021/08/11 12:02:50;;;;;;;;;6.50;6.00;;;;;25.03;51.60;101185.75;4876029;29;46105;-80
2021/08/11 12:05:15;;;;;;;;;3.75;3.00;;;;;25.11;51.45;101186.63;4876533;29;45745;-79
2021/08/11 12:07:41;;;;;;;;;4.00;3.50;;;;;25.17;51.44;101189.41;4876729;29;45737;-80
2021/08/11 12:10:07;;;;;;;;;6.25;5.25;;;;;25.17;51.15;101181.34;4876471;29;45730;-80
2021/08/11 12:15:54;;;;;;;;;5.00;4.00;;;;;25.37;50.73;101181.56;4904009;28;45879;-80
2021/08/11 12:18:24;;;;;;;;;5.00;5.00;;;;;25.38;50.42;101173.31;4916864;28;45511;-80
2021/08/11 12:20:52;;;;;;;;;4.25;4.25;;;;;25.45;50.21;101182.28;4916831;28;45978;-80
2021/08/11 12:23:26;;;;;;;;;5.00;5.00;;;;;25.52;50.11;101185.03;4916463;28;45737;-80
2021/08/11 12:25:55;;;;;;;;;5.00;4.75;;;;;25.56;49.78;101180.97;4916638;28;45703;-80
2021/08/11 12:31:43;;;;;;;;;4.50;4.00;;;;;25.60;49.89;101159.91;4915728;28;46107;-80